Terminal Aerodrome Forecast
Issued by NWS

Home | Current Version | Previous Version | Text Only | Print | Product List | Glossary On
Versions: 1 2 3 4 5 6 7 8 9 10 11 12 13 14
629
FTUS44 KLIX 241731
TAFMSY
TAF
KMSY 241731Z 2418/2518 04008KT P6SM VCTS SCT035CB BKN150
      TEMPO 2418/2420 5SM -TSRA BKN035CB
     FM250000 14006KT P6SM VCSH BKN035
     FM250900 00000KT P6SM VCSH SCT025 BKN250=

USA.gov is the U.S. government's official web portal to all federal, state and local government web resources and services.